createdAt,value
2019-04-22T00:03:50.002Z,5.64
2019-04-22T00:09:11.271Z,5.30
2019-04-22T00:14:06.716Z,5.40
2019-04-22T00:24:18.696Z,5.50
2019-04-22T00:29:46.693Z,5.17
2019-04-22T00:34:32.478Z,5.60
2019-04-22T00:39:37.178Z,5.50
2019-04-22T00:44:40.297Z,5.50
2019-04-22T00:54:55.979Z,4.83
2019-04-22T00:59:52.342Z,5.00
2019-04-22T01:04:57.640Z,5.80
2019-04-22T01:09:58.518Z,5.25
2019-04-22T01:15:00.386Z,5.37
2019-04-22T01:20:45.706Z,5.87
2019-04-22T01:25:08.373Z,5.13
2019-04-22T01:30:03.639Z,5.70
2019-04-22T01:35:11.136Z,5.60
2019-04-22T01:40:25.402Z,5.80
2019-04-22T01:45:34.687Z,5.40
2019-04-22T01:50:30.717Z,5.27
2019-04-22T01:55:39.106Z,5.03
2019-04-22T02:00:45.337Z,5.58
2019-04-22T02:05:46.801Z,5.57
2019-04-22T02:11:07.902Z,5.20
2019-04-22T02:16:00.501Z,5.47
2019-04-22T02:20:56.545Z,5.17
2019-04-22T02:26:10.858Z,5.90
2019-04-22T02:31:25.879Z,5.60
2019-04-22T02:56:31.427Z,5.33
2019-04-22T03:01:45.061Z,5.25
2019-04-22T03:22:12.470Z,5.73
2019-04-22T03:26:58.537Z,5.40
2019-04-22T03:37:20.737Z,5.73
2019-04-22T03:47:21.706Z,5.63
2019-04-22T03:52:18.825Z,5.07
2019-04-22T04:02:38.761Z,5.37
2019-04-22T04:07:42.578Z,5.50
2019-04-22T04:12:43.479Z,4.77
2019-04-22T04:17:44.114Z,5.17
2019-04-22T04:28:10.686Z,5.43
2019-04-22T04:32:55.302Z,5.63
2019-04-22T04:53:19.428Z,5.43
2019-04-22T04:58:34.969Z,5.87
2019-04-22T05:03:21.420Z,6.20
2019-04-22T05:08:33.144Z,5.73
2019-04-22T05:13:23.386Z,5.50
2019-04-22T05:18:29.628Z,5.63
2019-04-22T05:23:30.095Z,5.20
2019-04-22T05:28:31.797Z,5.47
2019-04-22T05:33:37.478Z,5.40
2019-04-22T05:38:40.010Z,5.60
2019-04-22T05:43:47.849Z,5.60
2019-04-22T05:48:51.087Z,5.60
2019-04-22T05:53:48.204Z,5.33
2019-04-22T05:58:59.903Z,5.07
2019-04-22T06:09:07.172Z,5.07
2019-04-22T06:14:05.880Z,5.37
2019-04-22T06:19:13.739Z,5.47
2019-04-22T06:29:22.178Z,7.58
2019-04-22T06:39:34.117Z,4.07
2019-04-22T06:44:29.687Z,4.22
2019-04-22T06:49:35.894Z,4.08
2019-04-22T06:54:45.486Z,4.28
2019-04-22T06:59:42.614Z,4.33
2019-04-22T07:04:54.060Z,4.22
2019-04-22T07:10:04.018Z,4.20
2019-04-22T07:14:53.545Z,4.65
2019-04-22T07:19:55.555Z,4.40
2019-04-22T07:25:06.672Z,4.28
2019-04-22T07:35:16.882Z,4.10
2019-04-22T07:40:16.818Z,4.03
2019-04-22T07:45:26.537Z,4.25
2019-04-22T07:50:39.326Z,4.05
2019-04-22T07:55:27.636Z,4.35
2019-04-22T08:00:34.122Z,3.90
2019-04-22T08:05:47.602Z,4.25
2019-04-22T08:10:52.248Z,4.03
2019-04-22T08:20:54.045Z,3.72
2019-04-22T08:25:55.759Z,4.22
2019-04-22T08:31:01.964Z,4.20
2019-04-22T08:41:19.612Z,4.35
2019-04-22T08:46:17.063Z,4.37
2019-04-22T08:51:23.464Z,3.75
2019-04-22T08:56:30.994Z,4.10
2019-04-22T09:06:39.899Z,3.75
2019-04-22T09:16:50.667Z,3.90
2019-04-22T09:21:50.658Z,3.67
2019-04-22T09:26:48.713Z,3.90
2019-04-22T09:31:53.349Z,3.85
2019-04-22T09:36:58.547Z,3.92
2019-04-22T09:42:03.028Z,3.67
2019-04-22T09:47:06.204Z,4.10
2019-04-22T09:52:10.237Z,3.55
2019-04-22T09:57:15.799Z,3.60
2019-04-22T10:02:31.781Z,3.98
2019-04-22T10:07:23.806Z,3.50
2019-04-22T10:12:30.479Z,3.67
2019-04-22T10:17:25.797Z,3.70
2019-04-22T10:22:39.488Z,3.87
2019-04-22T10:27:46.249Z,3.55
2019-04-22T10:32:44.280Z,3.45
2019-04-22T10:37:23.846Z,3.65
2019-04-22T10:42:25.223Z,4.00
2019-04-22T10:47:27.979Z,3.37
2019-04-22T10:52:31.614Z,3.52
2019-04-22T10:57:34.043Z,3.47
2019-04-22T11:02:37.253Z,3.27
2019-04-22T11:07:49.059Z,3.30
2019-04-22T11:12:45.009Z,3.08
2019-04-22T11:17:49.380Z,3.22
2019-04-22T11:22:53.064Z,3.37
2019-04-22T11:27:55.840Z,3.17
2019-04-22T11:32:58.563Z,3.27
2019-04-22T11:38:01.161Z,3.08
2019-04-22T11:43:04.011Z,3.22
2019-04-22T11:48:06.462Z,3.58
2019-04-22T11:53:09.103Z,3.40
2019-04-22T11:58:12.817Z,3.33
2019-04-22T12:03:16.699Z,3.50
2019-04-22T12:08:20.722Z,3.37
2019-04-22T12:13:24.064Z,3.30
2019-04-22T12:18:27.104Z,3.52
2019-04-22T12:23:29.545Z,3.20
2019-04-22T12:28:32.935Z,3.45
2019-04-22T12:33:35.363Z,3.72
2019-04-22T12:38:37.788Z,2.80
2019-04-22T12:43:41.007Z,2.70
2019-04-22T12:48:43.525Z,3.10
2019-04-22T12:53:46.233Z,3.05
2019-04-22T12:58:49.870Z,2.90
2019-04-22T13:03:56.413Z,3.08
2019-04-22T13:08:56.649Z,3.55
2019-04-22T13:13:59.049Z,3.02
2019-04-22T13:19:05.624Z,2.80
2019-04-22T13:24:06.949Z,2.92
2019-04-22T13:29:10.720Z,2.90
2019-04-22T13:34:21.359Z,2.98
2019-04-22T13:39:17.170Z,2.85
2019-04-22T13:44:20.850Z,2.77
2019-04-22T13:50:01.303Z,2.92
2019-04-22T13:55:05.610Z,2.95
2019-04-22T13:59:40.308Z,3.05
2019-04-22T14:04:38.749Z,2.90
2019-04-22T14:09:42.345Z,2.67
2019-04-22T14:14:46.165Z,2.65
2019-04-22T14:19:48.765Z,2.55
2019-04-22T14:24:52.235Z,2.72
2019-04-22T14:29:55.657Z,2.50
2019-04-22T14:34:58.187Z,2.80
2019-04-22T14:40:05.325Z,2.70
2019-04-22T14:45:30.373Z,2.65
2019-04-22T14:50:32.813Z,2.60
2019-04-22T14:55:22.709Z,2.55
2019-04-22T15:00:20.308Z,2.70
2019-04-22T15:05:23.904Z,2.58
2019-04-22T15:10:26.368Z,2.27
2019-04-22T15:15:34.655Z,2.20
2019-04-22T15:20:39.640Z,2.37
2019-04-22T15:25:42.326Z,2.30
2019-04-22T15:30:45.717Z,2.30
2019-04-22T15:35:49.470Z,2.20
2019-04-22T15:40:52.509Z,2.52
2019-04-22T15:45:54.948Z,2.20
2019-04-22T15:50:58.460Z,2.00
2019-04-22T15:56:00.992Z,2.40
2019-04-22T16:01:13.971Z,2.37
2019-04-22T16:06:08.292Z,2.72
2019-04-22T16:11:11.751Z,2.25
2019-04-22T16:16:14.643Z,2.00
2019-04-22T16:21:31.525Z,2.08
2019-04-22T16:26:42.345Z,2.02
2019-04-22T16:31:45.290Z,2.20
2019-04-22T16:36:49.053Z,1.90
2019-04-22T16:41:52.727Z,2.10
2019-04-22T16:46:55.388Z,2.70
2019-04-22T16:51:58.421Z,2.60
2019-04-22T16:57:01.864Z,2.37
2019-04-22T17:02:10.507Z,2.45
2019-04-22T17:07:16.022Z,2.50
2019-04-22T17:12:19.597Z,2.30
2019-04-22T17:17:22.409Z,2.37
2019-04-22T17:22:25.959Z,2.40
2019-04-22T17:27:30.274Z,2.62
2019-04-22T17:32:33.634Z,2.50
2019-04-22T17:37:37.769Z,2.75
2019-04-22T17:43:00.721Z,2.70
2019-04-22T17:48:25.773Z,2.62
2019-04-22T17:53:33.455Z,2.65
2019-04-22T17:58:40.233Z,2.33
2019-04-22T18:03:24.542Z,2.50
2019-04-22T18:08:40.766Z,2.90
2019-04-22T18:13:44.347Z,2.92
2019-04-22T18:18:50.805Z,2.60
2019-04-22T18:23:47.730Z,3.02
2019-04-22T18:28:55.912Z,3.33
2019-04-22T18:33:55.616Z,2.92
2019-04-22T18:39:09.869Z,3.00
2019-04-22T18:44:13.497Z,2.95
2019-04-22T18:49:11.012Z,3.08
2019-04-22T18:54:22.818Z,2.87
2019-04-22T18:59:12.492Z,3.12
2019-04-22T19:04:15.148Z,2.80
2019-04-22T19:09:40.472Z,3.30
2019-04-22T19:14:45.553Z,3.13
2019-04-22T19:19:50.115Z,3.75
2019-04-22T19:24:41.693Z,3.25
2019-04-22T19:30:14.093Z,3.50
2019-04-22T19:35:14.076Z,3.12
2019-04-22T19:40:33.093Z,3.60
2019-04-22T19:45:24.030Z,3.35
2019-04-22T19:50:28.017Z,3.22
2019-04-22T19:55:29.425Z,3.37
2019-04-22T20:00:34.399Z,3.16
2019-04-22T20:05:54.708Z,3.47
2019-04-22T20:10:59.222Z,4.00
2019-04-22T20:15:50.851Z,5.40
2019-04-22T20:21:07.065Z,4.40
2019-04-22T20:26:03.536Z,3.95
2019-04-22T20:31:14.121Z,3.47
2019-04-22T20:36:39.800Z,3.62
2019-04-22T20:41:15.888Z,3.70
2019-04-22T20:46:24.218Z,3.72
2019-04-22T20:51:38.517Z,3.48
2019-04-22T20:56:31.494Z,3.75
2019-04-22T21:01:41.430Z,4.30
2019-04-22T21:06:42.161Z,3.25
2019-04-22T21:11:45.439Z,4.22
2019-04-22T21:16:51.909Z,8.78
2019-04-22T21:21:59.611Z,6.87
2019-04-22T21:27:04.395Z,4.10
2019-04-22T21:32:01.064Z,4.28
2019-04-22T21:37:14.522Z,5.50
2019-04-22T21:42:14.191Z,4.70
2019-04-22T21:47:25.680Z,4.28
2019-04-22T21:52:24.934Z,3.98
2019-04-22T21:57:44.106Z,3.70
2019-04-22T22:02:35.839Z,3.83
2019-04-22T22:07:19.393Z,3.45
2019-04-22T22:12:40.847Z,3.92
2019-04-22T22:17:40.387Z,4.75
2019-04-22T22:27:44.391Z,4.40
2019-04-22T22:33:00.154Z,4.40
2019-04-22T22:37:57.708Z,3.50
2019-04-22T22:42:45.903Z,2.87
2019-04-22T22:48:16.939Z,3.40
2019-04-22T22:58:16.016Z,3.20
2019-04-22T23:03:40.534Z,3.50
2019-04-22T23:08:25.846Z,3.40
2019-04-22T23:18:10.076Z,3.30
2019-04-22T23:23:33.261Z,3.15
2019-04-22T23:28:39.745Z,3.42
2019-04-22T23:33:46.401Z,3.60
2019-04-22T23:39:02.462Z,3.40
2019-04-22T23:44:08.674Z,3.65
2019-04-22T23:49:04.464Z,3.20
2019-04-22T23:54:20.457Z,3.20
2019-04-22T23:59:22.970Z,3.42
